createdAt,value
2019-02-27T00:01:43.136Z,94894.78
2019-02-27T00:04:12.731Z,94893.94
2019-02-27T00:06:42.210Z,94907.09
2019-02-27T00:09:12.627Z,94899.43
2019-02-27T00:11:45.970Z,94907.22
2019-02-27T00:14:13.370Z,94910.14
2019-02-27T00:16:44.603Z,94913.67
2019-02-27T00:19:14.085Z,94912.38
2019-02-27T00:21:44.326Z,94910.05
2019-02-27T00:24:13.833Z,94914.88
2019-02-27T00:26:43.322Z,94914.24
2019-02-27T00:29:12.831Z,94909.06
2019-02-27T00:31:45.308Z,94908.21
2019-02-27T00:34:13.547Z,94905.10
2019-02-27T00:36:45.066Z,94914.51
2019-02-27T00:39:14.269Z,94902.55
2019-02-27T00:41:46.032Z,94897.33
2019-02-27T00:44:15.029Z,94892.14
2019-02-27T00:46:46.471Z,94889.70
2019-02-27T00:49:15.721Z,94890.33
2019-02-27T00:51:45.510Z,94888.33
2019-02-27T00:54:14.984Z,94887.43
2019-02-27T00:56:45.016Z,94883.66
2019-02-27T00:59:15.097Z,94888.60
2019-02-27T01:01:47.303Z,94881.16
2019-02-27T01:04:15.803Z,94875.02
2019-02-27T01:06:47.540Z,94874.34
2019-02-27T01:09:16.833Z,94871.75
2019-02-27T01:11:46.333Z,94865.56
2019-02-27T01:14:15.819Z,94867.48
2019-02-27T01:16:47.741Z,94867.83
2019-02-27T01:19:16.551Z,94866.82
2019-02-27T01:21:46.023Z,94863.61
2019-02-27T01:24:17.554Z,94863.94
2019-02-27T01:26:46.703Z,94862.92
2019-02-27T01:29:18.135Z,94864.13
2019-02-27T01:31:47.416Z,94865.77
2019-02-27T01:34:17.876Z,94863.45
2019-02-27T01:36:47.371Z,94863.27
2019-02-27T01:39:16.859Z,94862.26
2019-02-27T01:41:46.372Z,94863.42
2019-02-27T01:44:15.880Z,94865.47
2019-02-27T01:46:45.388Z,94868.06
2019-02-27T01:49:16.121Z,94856.28
2019-02-27T01:51:46.278Z,94859.53
2019-02-27T01:54:15.802Z,94848.59
2019-02-27T01:56:45.230Z,94856.07
2019-02-27T01:59:16.915Z,94860.11
2019-02-27T02:01:45.932Z,94865.66
2019-02-27T02:04:19.987Z,94866.48
2019-02-27T02:06:46.707Z,94870.22
2019-02-27T02:09:41.338Z,94874.44
2019-02-27T02:12:23.333Z,94867.95
2019-02-27T02:15:39.070Z,94872.80
2019-02-27T02:18:45.756Z,94875.20
2019-02-27T02:22:25.197Z,94868.92
2019-02-27T02:25:28.044Z,94872.66
2019-02-27T02:29:05.890Z,94870.66
2019-02-27T02:31:51.830Z,94862.21
2019-02-27T02:34:58.186Z,94864.17
2019-02-27T02:37:53.745Z,94858.81
2019-02-27T02:40:51.190Z,94856.37
2019-02-27T02:44:00.828Z,94864.66
2019-02-27T02:46:48.752Z,94866.33
2019-02-27T02:49:50.015Z,94868.11
2019-02-27T02:52:40.740Z,94872.17
2019-02-27T02:55:56.190Z,94883.39
2019-02-27T02:58:53.489Z,94880.03
2019-02-27T03:02:10.217Z,94880.41
2019-02-27T03:05:23.662Z,94876.63
2019-02-27T03:08:12.163Z,94877.78
2019-02-27T03:10:46.594Z,94884.45
2019-02-27T03:14:03.966Z,94886.44
2019-02-27T03:17:23.550Z,94891.18
2019-02-27T03:20:41.513Z,94884.22
2019-02-27T03:24:07.159Z,94888.44
2019-02-27T03:27:04.509Z,94891.42
2019-02-27T03:30:02.808Z,94898.78
2019-02-27T03:32:45.190Z,94895.72
2019-02-27T03:35:54.462Z,94897.38
2019-02-27T03:39:00.663Z,94895.41
2019-02-27T03:42:23.318Z,94894.29
2019-02-27T03:45:22.090Z,94892.70
2019-02-27T03:48:35.168Z,94892.39
2019-02-27T03:51:32.475Z,94886.39
2019-02-27T03:54:27.825Z,94878.13
2019-02-27T03:57:41.311Z,94883.50
2019-02-27T04:00:49.843Z,94883.52
2019-02-27T04:03:58.450Z,94883.50
2019-02-27T04:07:13.654Z,94890.14
2019-02-27T04:09:43.136Z,94895.03
2019-02-27T04:12:16.094Z,94890.48
2019-02-27T04:14:43.876Z,94895.69
2019-02-27T04:17:13.344Z,94897.47
2019-02-27T04:19:43.176Z,94900.22
2019-02-27T04:22:12.679Z,94900.72
2019-02-27T04:24:42.157Z,94898.61
2019-02-27T04:27:11.647Z,94902.83
2019-02-27T04:29:41.903Z,94907.22
2019-02-27T04:32:12.433Z,94908.98
2019-02-27T04:34:42.684Z,94916.45
2019-02-27T04:37:12.173Z,94909.95
2019-02-27T04:39:41.656Z,94917.42
2019-02-27T04:42:11.152Z,94914.52
2019-02-27T04:44:40.654Z,94910.44
2019-02-27T04:47:10.163Z,94903.46
2019-02-27T04:49:39.667Z,94910.95
2019-02-27T04:52:09.156Z,94914.03
2019-02-27T04:54:41.327Z,94919.38
2019-02-27T04:57:09.890Z,94922.62
2019-02-27T04:59:39.379Z,94924.56
2019-02-27T05:02:08.875Z,94929.76
2019-02-27T05:04:38.354Z,94938.66
2019-02-27T05:07:07.824Z,94942.88
2019-02-27T05:09:37.296Z,94941.44
2019-02-27T05:12:06.814Z,94941.27
2019-02-27T05:14:36.297Z,94950.35
2019-02-27T05:17:05.799Z,94951.31
2019-02-27T05:19:37.230Z,94947.27
2019-02-27T05:22:06.541Z,94954.05
2019-02-27T05:24:36.023Z,94952.58
2019-02-27T05:27:05.535Z,94948.18
2019-02-27T05:29:35.205Z,94960.80
2019-02-27T05:32:06.261Z,94957.88
2019-02-27T05:34:35.795Z,94956.27
2019-02-27T05:37:06.028Z,94961.47
2019-02-27T05:39:35.602Z,94957.88
2019-02-27T05:42:06.373Z,94959.33
2019-02-27T05:44:36.481Z,94960.80
2019-02-27T05:47:05.984Z,94964.57
2019-02-27T05:49:35.527Z,94966.02
2019-02-27T05:52:05.011Z,94970.72
2019-02-27T05:54:34.504Z,94970.39
2019-02-27T05:57:04.048Z,94974.11
2019-02-27T05:59:33.545Z,94976.03
2019-02-27T06:02:03.072Z,94982.22
2019-02-27T06:04:34.390Z,94991.63
2019-02-27T06:07:03.841Z,94988.23
2019-02-27T06:09:33.319Z,94997.43
2019-02-27T06:12:06.669Z,94989.12
2019-02-27T06:14:34.150Z,94992.81
2019-02-27T06:17:03.661Z,94997.95
2019-02-27T06:19:33.603Z,95006.70
2019-02-27T06:22:05.829Z,95009.95
2019-02-27T06:24:35.102Z,95014.59
2019-02-27T06:27:06.267Z,95011.73
2019-02-27T06:29:35.898Z,95020.92
2019-02-27T06:32:05.411Z,95019.30
2019-02-27T06:34:34.972Z,95021.63
2019-02-27T06:37:06.716Z,95022.92
2019-02-27T06:39:36.227Z,95037.81
2019-02-27T06:42:05.787Z,95036.19
2019-02-27T06:44:36.627Z,95044.93
2019-02-27T06:47:07.253Z,95042.97
2019-02-27T06:49:36.786Z,95042.63
2019-02-27T06:52:09.046Z,95035.71
2019-02-27T06:54:37.844Z,95045.64
2019-02-27T06:57:08.298Z,95054.42
2019-02-27T06:59:37.976Z,95054.09
2019-02-27T07:02:07.519Z,95063.41
2019-02-27T07:04:39.503Z,95054.38
2019-02-27T07:07:08.258Z,95046.14
2019-02-27T07:09:37.759Z,95049.10
2019-02-27T07:12:07.392Z,95049.92
2019-02-27T07:14:39.251Z,95055.48
2019-02-27T07:17:08.117Z,95061.16
2019-02-27T07:19:37.665Z,95071.58
2019-02-27T07:22:09.226Z,95060.53
2019-02-27T07:24:38.466Z,95067.36
2019-02-27T07:27:07.972Z,95064.47
2019-02-27T07:29:37.477Z,95068.84
2019-02-27T07:32:06.982Z,95068.73
2019-02-27T07:34:36.496Z,95085.27
2019-02-27T07:37:06.003Z,95079.90
2019-02-27T07:39:35.516Z,95086.45
2019-02-27T07:42:05.033Z,95087.78
2019-02-27T07:44:35.040Z,95087.61
2019-02-27T07:47:05.420Z,95086.16
2019-02-27T07:49:34.999Z,95080.34
2019-02-27T07:52:04.657Z,95088.16
2019-02-27T07:54:34.160Z,95091.91
2019-02-27T07:57:03.679Z,95093.80
2019-02-27T07:59:37.873Z,95095.80
2019-02-27T08:02:04.404Z,95104.52
2019-02-27T08:04:34.027Z,95104.06
2019-02-27T08:07:03.586Z,95111.55
2019-02-27T08:09:33.088Z,95105.69
2019-02-27T08:12:02.645Z,95104.75
2019-02-27T08:14:36.823Z,95098.97
2019-02-27T08:17:03.414Z,95097.73
2019-02-27T08:19:32.985Z,95102.29
2019-02-27T08:22:02.515Z,95097.93
2019-02-27T08:24:33.674Z,95102.80
2019-02-27T08:27:03.322Z,95111.22
2019-02-27T08:29:32.926Z,95108.56
2019-02-27T08:32:02.515Z,95115.02
2019-02-27T08:34:32.022Z,95116.86
2019-02-27T08:37:01.580Z,95108.04
2019-02-27T08:39:31.109Z,95111.16
2019-02-27T08:42:03.275Z,95117.20
2019-02-27T08:44:31.875Z,95118.22
2019-02-27T08:47:01.406Z,95116.80
2019-02-27T08:49:31.893Z,95124.48
2019-02-27T08:52:01.444Z,95117.20
2019-02-27T08:54:33.074Z,95118.86
2019-02-27T08:57:02.190Z,95128.73
2019-02-27T08:59:31.716Z,95129.42
2019-02-27T09:02:01.272Z,95134.86
2019-02-27T09:04:30.861Z,95137.37
2019-02-27T09:07:02.848Z,95123.17
2019-02-27T09:09:31.768Z,95124.25
2019-02-27T09:12:03.200Z,95132.98
2019-02-27T09:14:32.785Z,95129.78
2019-02-27T09:17:02.312Z,95134.73
2019-02-27T09:19:31.839Z,95134.40
2019-02-27T09:22:02.469Z,95131.20
2019-02-27T09:24:32.098Z,95144.48
2019-02-27T09:27:01.633Z,95147.43
2019-02-27T09:29:31.213Z,95146.83
2019-02-27T09:32:00.744Z,95142.14
2019-02-27T09:34:30.296Z,95148.19
2019-02-27T09:36:59.825Z,95152.27
2019-02-27T09:39:31.158Z,95155.67
2019-02-27T09:42:02.626Z,95153.08
2019-02-27T09:44:36.366Z,95151.10
2019-02-27T09:47:03.431Z,95149.95
2019-02-27T09:49:32.965Z,95152.20
2019-02-27T09:52:02.547Z,95164.20
2019-02-27T09:54:33.931Z,95163.23
2019-02-27T09:57:03.329Z,95163.08
2019-02-27T09:59:32.844Z,95162.38
2019-02-27T10:02:02.467Z,95156.16
2019-02-27T10:04:31.987Z,95150.38
2019-02-27T10:07:01.491Z,95153.66
2019-02-27T10:09:34.472Z,95150.95
2019-02-27T10:12:02.271Z,95153.89
2019-02-27T10:14:31.775Z,95161.73
2019-02-27T10:17:01.281Z,95158.64
2019-02-27T10:19:30.842Z,95157.33
2019-02-27T10:22:00.374Z,95160.25
2019-02-27T10:24:29.884Z,95168.37
2019-02-27T10:26:59.392Z,95157.17
2019-02-27T10:29:28.918Z,95160.92
2019-02-27T10:32:00.727Z,95163.98
2019-02-27T10:34:29.719Z,95157.48
2019-02-27T10:36:59.277Z,95159.28
2019-02-27T10:39:28.914Z,95160.91
2019-02-27T10:41:58.454Z,95156.34
2019-02-27T10:44:27.961Z,95156.00
2019-02-27T10:47:00.067Z,95152.12
2019-02-27T10:49:28.717Z,95158.63
2019-02-27T10:51:58.224Z,95151.47
2019-02-27T10:54:27.712Z,95148.06
2019-02-27T10:56:57.225Z,95147.22
2019-02-27T10:59:26.735Z,95147.83
2019-02-27T11:01:56.240Z,95149.15
2019-02-27T11:04:25.727Z,95148.34
2019-02-27T11:06:55.235Z,95154.38
2019-02-27T11:09:27.267Z,95154.55
2019-02-27T11:11:56.818Z,95145.59
2019-02-27T11:14:31.658Z,95150.80
2019-02-27T11:17:02.052Z,95151.14
2019-02-27T11:19:29.094Z,95151.95
2019-02-27T11:21:59.113Z,95142.36
2019-02-27T11:24:28.766Z,95145.27
2019-02-27T11:26:58.281Z,95140.74
2019-02-27T11:29:27.861Z,95140.58
2019-02-27T11:31:57.383Z,95136.19
2019-02-27T11:34:26.874Z,95144.47
2019-02-27T11:36:56.370Z,95146.88
2019-02-27T11:39:25.873Z,95143.78
2019-02-27T11:41:55.362Z,95139.06
2019-02-27T11:44:24.880Z,95143.61
2019-02-27T11:46:58.650Z,95140.22
2019-02-27T11:49:25.676Z,95147.20
2019-02-27T11:51:56.978Z,95140.41
2019-02-27T11:54:26.629Z,95129.34
2019-02-27T11:56:57.027Z,95132.27
2019-02-27T11:59:26.638Z,95124.77
2019-02-27T12:01:56.284Z,95124.41
2019-02-27T12:04:25.762Z,95135.19
2019-02-27T12:06:55.308Z,95131.43
2019-02-27T12:09:24.931Z,95130.30
2019-02-27T12:11:54.439Z,95126.77
2019-02-27T12:14:23.921Z,95120.42
2019-02-27T12:16:53.440Z,95124.47
2019-02-27T12:19:22.997Z,95130.93
2019-02-27T12:21:52.532Z,95136.14
2019-02-27T12:24:22.054Z,95130.64
2019-02-27T12:26:51.610Z,95136.50
2019-02-27T12:29:21.100Z,95137.81
2019-02-27T12:31:50.608Z,95128.05
2019-02-27T12:34:20.107Z,95127.36
2019-02-27T12:36:49.946Z,95129.22
2019-02-27T12:39:20.852Z,95129.92
2019-02-27T12:41:50.371Z,95129.40
2019-02-27T12:44:19.870Z,95134.52
2019-02-27T12:46:49.399Z,95124.85
2019-02-27T12:49:20.163Z,95125.01
2019-02-27T12:51:50.160Z,95121.03
2019-02-27T12:54:19.690Z,95128.38
2019-02-27T12:56:49.201Z,95120.22
2019-02-27T12:59:18.731Z,95123.11
2019-02-27T13:01:50.702Z,95130.48
2019-02-27T13:04:20.049Z,95128.70
2019-02-27T13:06:49.838Z,95127.44
2019-02-27T13:09:19.354Z,95132.78
2019-02-27T13:11:48.864Z,95132.00
2019-02-27T13:14:18.372Z,95132.38
2019-02-27T13:16:49.526Z,95136.28
2019-02-27T13:19:19.123Z,95131.39
2019-02-27T13:21:48.671Z,95144.98
2019-02-27T13:24:18.203Z,95148.24
2019-02-27T13:26:47.753Z,95144.33
2019-02-27T13:29:17.287Z,95144.69
2019-02-27T13:31:48.439Z,95153.83
2019-02-27T13:34:18.050Z,95159.72
2019-02-27T13:36:47.600Z,95158.58
2019-02-27T13:39:17.120Z,95161.99
2019-02-27T13:41:46.634Z,95166.05
2019-02-27T13:44:16.124Z,95163.25
2019-02-27T13:46:45.848Z,95169.44
2019-02-27T13:49:15.379Z,95166.16
2019-02-27T13:51:44.949Z,95166.48
2019-02-27T13:54:14.443Z,95174.17
2019-02-27T13:56:44.003Z,95181.33
2019-02-27T13:59:13.510Z,95185.21
2019-02-27T14:01:43.029Z,95185.89
2019-02-27T14:04:12.568Z,95194.35
2019-02-27T14:06:43.389Z,95189.47
2019-02-27T14:09:13.651Z,95199.22
2019-02-27T14:11:43.144Z,95201.84
2019-02-27T14:14:15.099Z,95196.47
2019-02-27T14:16:43.953Z,95196.02
2019-02-27T14:19:13.492Z,95196.83
2019-02-27T14:21:42.999Z,95195.06
2019-02-27T14:24:12.560Z,95190.48
2019-02-27T14:26:42.230Z,95186.25
2019-02-27T14:29:11.743Z,95188.69
2019-02-27T14:31:43.475Z,95189.16
2019-02-27T14:34:12.485Z,95181.38
2019-02-27T14:36:42.507Z,95179.08
2019-02-27T14:39:14.341Z,95177.13
2019-02-27T14:41:47.991Z,95176.81
2019-02-27T14:44:15.063Z,95178.13
2019-02-27T14:46:45.010Z,95181.71
2019-02-27T14:49:15.182Z,95171.63
2019-02-27T14:51:44.703Z,95171.61
2019-02-27T14:54:14.225Z,95170.63
2019-02-27T14:56:43.747Z,95169.02
2019-02-27T14:59:13.223Z,95173.08
2019-02-27T15:01:42.722Z,95173.90
2019-02-27T15:04:12.231Z,95173.89
2019-02-27T15:06:41.756Z,95170.16
2019-02-27T15:09:11.288Z,95178.15
2019-02-27T15:11:40.770Z,95174.88
2019-02-27T15:14:10.294Z,95173.59
2019-02-27T15:16:39.804Z,95192.13
2019-02-27T15:19:09.379Z,95183.99
2019-02-27T15:21:38.903Z,95183.67
2019-02-27T15:24:10.433Z,95178.14
2019-02-27T15:26:45.240Z,95176.96
2019-02-27T15:29:10.990Z,95175.17
2019-02-27T15:31:40.541Z,95173.06
2019-02-27T15:34:12.296Z,95174.52
2019-02-27T15:36:41.319Z,95172.89
2019-02-27T15:39:10.926Z,95169.66
2019-02-27T15:41:40.417Z,95170.31
2019-02-27T15:44:09.924Z,95169.31
2019-02-27T15:46:39.510Z,95172.94
2019-02-27T15:49:09.030Z,95178.31
2019-02-27T15:51:38.543Z,95173.56
2019-02-27T15:54:08.084Z,95179.38
2019-02-27T15:56:41.519Z,95180.47
2019-02-27T15:59:08.833Z,95181.64
2019-02-27T16:01:38.502Z,95180.97
2019-02-27T16:04:08.230Z,95178.88
2019-02-27T16:06:39.753Z,95178.08
2019-02-27T16:09:10.372Z,95182.94
2019-02-27T16:11:39.871Z,95184.42
2019-02-27T16:14:10.331Z,95187.17
2019-02-27T16:16:40.036Z,95186.38
2019-02-27T16:19:10.803Z,95183.11
2019-02-27T16:21:40.770Z,95184.08
2019-02-27T16:24:10.355Z,95184.58
2019-02-27T16:26:39.859Z,95188.16
2019-02-27T16:29:09.348Z,95182.47
2019-02-27T16:31:40.049Z,95184.87
2019-02-27T16:34:10.029Z,95187.14
2019-02-27T16:36:39.553Z,95189.72
2019-02-27T16:39:09.253Z,95186.62
2019-02-27T16:41:38.755Z,95187.77
2019-02-27T16:44:08.257Z,95188.71
2019-02-27T16:46:43.571Z,95199.38
2019-02-27T16:49:10.154Z,95198.05
2019-02-27T16:51:40.465Z,95204.43
2019-02-27T16:54:09.944Z,95204.58
2019-02-27T16:56:39.462Z,95203.61
2019-02-27T16:59:11.889Z,95200.34
2019-02-27T17:01:40.462Z,95194.34
2019-02-27T17:04:11.425Z,95195.61
2019-02-27T17:06:41.058Z,95190.08
2019-02-27T17:09:12.476Z,95193.80
2019-02-27T17:11:41.986Z,95193.77
2019-02-27T17:14:11.520Z,95193.58
2019-02-27T17:16:44.498Z,95203.93
2019-02-27T17:19:12.333Z,95202.62
2019-02-27T17:21:41.898Z,95199.70
2019-02-27T17:24:11.440Z,95197.58
2019-02-27T17:26:41.083Z,95197.21
2019-02-27T17:29:10.663Z,95202.78
2019-02-27T17:31:48.984Z,95202.73
2019-02-27T17:34:13.816Z,95204.36
2019-02-27T17:36:42.658Z,95204.33
2019-02-27T17:39:12.213Z,95206.58
2019-02-27T17:41:44.535Z,95209.48
2019-02-27T17:44:13.062Z,95207.89
2019-02-27T17:46:42.621Z,95206.40
2019-02-27T17:49:12.167Z,95203.60
2019-02-27T17:51:41.659Z,95208.94
2019-02-27T17:54:11.186Z,95210.14
2019-02-27T17:56:40.973Z,95209.03
2019-02-27T17:59:10.529Z,95209.48
2019-02-27T18:01:40.010Z,95206.50
2019-02-27T18:04:12.216Z,95210.25
2019-02-27T18:06:40.748Z,95212.50
2019-02-27T18:09:10.475Z,95216.34
2019-02-27T18:11:40.004Z,95215.37
2019-02-27T18:14:10.189Z,95212.06
2019-02-27T18:16:39.779Z,95209.05
2019-02-27T18:19:09.306Z,95214.87
2019-02-27T18:21:38.808Z,95211.15
2019-02-27T18:24:08.335Z,95216.43
2019-02-27T18:26:37.866Z,95212.22
2019-02-27T18:29:08.261Z,95211.44
2019-02-27T18:31:37.771Z,95221.47
2019-02-27T18:34:07.311Z,95218.64
2019-02-27T18:36:42.850Z,95222.63
2019-02-27T18:39:08.522Z,95214.16
2019-02-27T18:41:39.700Z,95219.67
2019-02-27T18:44:09.328Z,95211.70
2019-02-27T18:46:38.911Z,95209.78
2019-02-27T18:49:08.415Z,95212.33
2019-02-27T18:51:37.918Z,95210.07
2019-02-27T18:54:07.505Z,95212.33
2019-02-27T18:56:40.270Z,95212.64
2019-02-27T18:59:08.321Z,95209.09
2019-02-27T19:01:37.847Z,95209.73
2019-02-27T19:04:07.418Z,95213.47
2019-02-27T19:06:36.931Z,95208.14
2019-02-27T19:09:08.854Z,95209.65
2019-02-27T19:11:38.467Z,95206.89
2019-02-27T19:14:08.034Z,95209.78
2019-02-27T19:16:37.570Z,95208.02
2019-02-27T19:19:07.172Z,95200.08
2019-02-27T19:21:36.667Z,95205.09
2019-02-27T19:24:06.256Z,95201.23
2019-02-27T19:26:35.911Z,95199.27
2019-02-27T19:29:05.692Z,95196.34
2019-02-27T19:31:35.201Z,95196.52
2019-02-27T19:34:07.387Z,95198.31
2019-02-27T19:36:35.991Z,95195.23
2019-02-27T19:39:07.281Z,95192.02
2019-02-27T19:41:39.639Z,95191.53
2019-02-27T19:44:08.196Z,95185.19
2019-02-27T19:46:37.707Z,95182.55
2019-02-27T19:49:07.229Z,95180.91
2019-02-27T19:51:36.726Z,95184.33
2019-02-27T19:54:06.233Z,95189.42
2019-02-27T19:56:36.262Z,95184.24
2019-02-27T19:59:05.907Z,95189.19
2019-02-27T20:01:35.409Z,95194.39
2019-02-27T20:04:08.991Z,95199.37
2019-02-27T20:06:36.223Z,95199.50
2019-02-27T20:09:06.757Z,95195.52
2019-02-27T20:11:40.040Z,95194.53
2019-02-27T20:14:07.848Z,95195.05
2019-02-27T20:16:37.487Z,95185.64
2019-02-27T20:19:07.100Z,95184.28
2019-02-27T20:21:36.610Z,95178.27
2019-02-27T20:24:14.280Z,95179.05
2019-02-27T20:26:44.226Z,95172.90
2019-02-27T20:29:08.657Z,95177.59
2019-02-27T20:31:38.152Z,95175.16
2019-02-27T20:34:10.703Z,95171.94
2019-02-27T20:36:38.832Z,95165.83
2019-02-27T20:39:12.411Z,95159.97
2019-02-27T20:41:43.909Z,95156.36
2019-02-27T20:44:14.552Z,95156.70
2019-02-27T20:46:46.446Z,95154.11
2019-02-27T20:49:15.388Z,95145.33
2019-02-27T20:51:44.906Z,95154.15
2019-02-27T20:54:14.404Z,95153.77
2019-02-27T20:56:43.906Z,95149.50
2019-02-27T20:59:13.435Z,95148.20
2019-02-27T21:01:46.744Z,95146.14
2019-02-27T21:04:14.363Z,95152.38
2019-02-27T21:06:47.388Z,95147.33
2019-02-27T21:09:15.566Z,95153.38
2019-02-27T21:11:45.065Z,95145.70
2019-02-27T21:14:14.521Z,95145.36
2019-02-27T21:16:45.693Z,95140.80
2019-02-27T21:19:15.365Z,95137.86
2019-02-27T21:21:44.937Z,95140.08
2019-02-27T21:24:14.461Z,95136.53
2019-02-27T21:26:43.949Z,95135.86
2019-02-27T21:29:13.463Z,95133.75
2019-02-27T21:31:43.027Z,95129.55
2019-02-27T21:34:12.589Z,95133.59
2019-02-27T21:36:42.419Z,95127.77
2019-02-27T21:39:11.949Z,95127.58
2019-02-27T21:41:42.315Z,95126.62
2019-02-27T21:44:12.739Z,95134.59
2019-02-27T21:46:46.221Z,95136.42
2019-02-27T21:49:13.460Z,95130.70
2019-02-27T21:51:47.675Z,95128.45
2019-02-27T21:54:14.993Z,95117.97
2019-02-27T21:56:44.479Z,95124.79
2019-02-27T21:59:13.990Z,95119.75
2019-02-27T22:01:43.448Z,95119.38
2019-02-27T22:04:14.132Z,95115.82
2019-02-27T22:06:43.687Z,95109.52
2019-02-27T22:09:13.571Z,95114.56
2019-02-27T22:11:43.923Z,95116.11
2019-02-27T22:14:16.591Z,95117.70
2019-02-27T22:16:44.601Z,95126.67
2019-02-27T22:19:14.074Z,95131.23
2019-02-27T22:21:43.635Z,95121.01
2019-02-27T22:24:13.164Z,95133.97
2019-02-27T22:26:42.686Z,95127.02
2019-02-27T22:29:12.244Z,95130.86
2019-02-27T22:31:41.742Z,95124.89
2019-02-27T22:34:11.229Z,95117.22
2019-02-27T22:36:44.028Z,95121.73
2019-02-27T22:39:11.943Z,95123.02
2019-02-27T22:41:41.768Z,95131.67
2019-02-27T22:44:11.391Z,95131.34
2019-02-27T22:46:40.877Z,95126.78
2019-02-27T22:49:10.348Z,95135.56
2019-02-27T22:51:39.854Z,95133.45
2019-02-27T22:54:09.350Z,95132.16
2019-02-27T22:56:38.818Z,95135.42
2019-02-27T22:59:08.342Z,95134.59
2019-02-27T23:01:49.362Z,95129.66
2019-02-27T23:04:15.838Z,95123.78
2019-02-27T23:06:47.086Z,95124.41
2019-02-27T23:09:17.751Z,95121.47
2019-02-27T23:11:47.343Z,95120.13
2019-02-27T23:14:18.928Z,95123.02
2019-02-27T23:16:48.461Z,95120.76
2019-02-27T23:19:17.942Z,95124.30
2019-02-27T23:21:47.439Z,95120.08
2019-02-27T23:24:16.909Z,95117.52
2019-02-27T23:26:46.427Z,95116.14
2019-02-27T23:29:15.931Z,95117.29
2019-02-27T23:31:45.420Z,95119.67
2019-02-27T23:34:14.906Z,95122.27
2019-02-27T23:36:44.403Z,95123.37
2019-02-27T23:39:13.878Z,95121.88
2019-02-27T23:41:43.380Z,95122.83
2019-02-27T23:44:12.898Z,95122.06
2019-02-27T23:46:49.597Z,95122.35
2019-02-27T23:49:13.746Z,95111.02
2019-02-27T23:51:43.271Z,95117.94
2019-02-27T23:54:12.811Z,95122.48
2019-02-27T23:56:42.354Z,95123.65
2019-02-27T23:59:11.868Z,95125.09
